This is the latest recevied weather packets stored in our database for station/object F6BIJ-13. If no packets are shown the sender has not sent any weather packets the latest 1 day(s).
| Time | Temp. | Humidity | Pressure | Rain* | Wind** | Luminosity | Snow |
|---|---|---|---|---|---|---|---|
| 1778005116 | 15° C | 80% | 1010.7 hPa | 0 mm | 0 m/s | - | - |
| 1778004757 | 14.44° C | 79% | 1010.6 hPa | 0 mm | 0 m/s | - | - |
| 1778004037 | 15.56° C | 78% | 1010.2 hPa | 0 mm | 0.45 m/s, 180° | - | - |
| 1778003677 | 16.11° C | 76% | 1010.2 hPa | 0 mm | 0 m/s | - | - |
| 1778003316 | 16.67° C | 77% | 1009.9 hPa | 0 mm | 0 m/s | - | - |
| 1778002957 | 16.67° C | 77% | 1009.8 hPa | 0 mm | 0 m/s | - | - |
| 1778002597 | 16.67° C | 73% | 1009.7 hPa | 0 mm | 0.45 m/s, 135° | - | - |
| 1778002237 | 16.67° C | 76% | 1009.8 hPa | 0 mm | 0.89 m/s, 90° | - | - |
| 1778001877 | 16.67° C | 76% | 1009.8 hPa | 0 mm | 0.45 m/s, 180° | - | - |
| 1778001516 | 17.22° C | 74% | 1009.7 hPa | 0 mm | 0 m/s | - | - |
| 1778001157 | 17.78° C | 76% | 1009.8 hPa | 0 mm | 0 m/s | - | - |
| 1778000797 | 17.22° C | 77% | 1009.8 hPa | 0 mm | 0.45 m/s, 0° | - | - |
| 1778000437 | 17.22° C | 77% | 1009.8 hPa | 0 mm | 0 m/s | - | - |
| 1778000077 | 17.78° C | 75% | 1009.8 hPa | 0 mm | 0.45 m/s, 225° | - | - |
| 1777999716 | 17.22° C | 75% | 1009.9 hPa | 0 mm | 0.45 m/s, 180° | - | - |
| 1777999357 | 17.22° C | 74% | 1009.8 hPa | 0 mm | 0.89 m/s, 180° | - | - |
| 1777998997 | 17.22° C | 71% | 1009.8 hPa | 0 mm | 0.45 m/s, 225° | - | - |
| 1777998637 | 17.22° C | 77% | 1009.8 hPa | 0 mm | 0.89 m/s, 180° | - | - |
| 1777998277 | 17.22° C | 77% | 1009.9 hPa | 0 mm | 0 m/s | - | - |
| 1777997917 | 17.22° C | 80% | 1010 hPa | 0 mm | 0 m/s | - | - |
| 1777997557 | 17.78° C | 78% | 1010.1 hPa | 0 mm | 0.45 m/s, 180° | - | - |
| 1777997197 | 17.78° C | 81% | 1010.2 hPa | 0 mm | 0 m/s | - | - |
| 1777996837 | 17.22° C | 77% | 1010.1 hPa | 0 mm | 0.45 m/s, 90° | - | - |
| 1777996476 | 17.78° C | 81% | 1010.2 hPa | 0 mm | 0 m/s | - | - |
| 1777996117 | 17.78° C | 80% | 1010.3 hPa | 0 mm | 0 m/s | - | - |
* Rain latest 24 hours (hover to see other rain measurements)
** Current wind speed in m/s (hover to see current wind gust speed)